Time;durP1;ratioP1;P1;durP2;ratioP2;P2;SDS_P1;SDS_P2;PMS_P1;PMS_P2;Temp;Humidity;BMP_temperature;BMP_pressure;BME280_temperature;BME280_humidity;BME280_pressure;Samples;Min_cycle;Max_cycle;Signal;HPM_P1;HPM_P2
2023/09/10 00:00:19;;;;;;;;;;;;;;;17.48;100.00;101199.44;4972548;28;19914;-86
2023/09/10 00:02:44;;;;;;;;;;;;;;;17.47;100.00;101211.28;4960340;28;19962;-86
2023/09/10 00:05:10;;;;;;;;;;;;;;;17.45;100.00;101213.34;4967017;28;19914;-85
2023/09/10 00:07:35;;;;;;;;;;;;;;;17.35;100.00;101204.72;4954765;28;19911;-85
2023/09/10 00:10:00;;;;;;;;;;;;;;;17.30;100.00;101187.28;4985475;28;19973;-86
2023/09/10 00:12:25;;;;;;;;;;;;;;;17.28;100.00;101189.34;4966650;28;20323;-86
2023/09/10 00:14:51;;;;;;;;;;;;;;;17.32;100.00;101197.88;4963036;28;20012;-86
2023/09/10 00:17:16;;;;;;;;;;;;;;;17.52;100.00;101206.13;4989223;28;20554;-86
2023/09/10 00:19:41;;;;;;;;;;;;;;;17.58;100.00;101208.00;4963040;28;19910;-85
2023/09/10 00:22:06;;;;;;;;;;;;;;;17.50;100.00;101214.41;4962475;28;19918;-85
2023/09/10 00:24:32;;;;;;;;;;;;;;;17.44;100.00;101214.34;4953814;28;20347;-85
2023/09/10 00:26:57;;;;;;;;;;;;;;;17.34;100.00;101203.09;4968809;28;19918;-85
2023/09/10 00:29:22;;;;;;;;;;;;;;;17.21;100.00;101193.88;4971143;28;19913;-86
2023/09/10 00:31:48;;;;;;;;;;;;;;;17.20;100.00;101196.75;4967368;28;19914;-85
2023/09/10 00:34:13;;;;;;;;;;;;;;;17.19;100.00;101195.91;4966072;28;20375;-86
2023/09/10 00:36:38;;;;;;;;;;;;;;;17.21;100.00;101204.66;4970791;28;19914;-85
2023/09/10 00:39:04;;;;;;;;;;;;;;;17.23;100.00;101210.69;4986939;28;20332;-86
2023/09/10 00:41:29;;;;;;;;;;;;;;;17.34;100.00;101220.09;4971551;28;19914;-86
2023/09/10 00:43:54;;;;;;;;;;;;;;;17.29;100.00;101212.59;4966702;28;19957;-85
2023/09/10 00:46:20;;;;;;;;;;;;;;;17.21;100.00;101223.53;4974606;28;19914;-86
2023/09/10 00:48:45;;;;;;;;;;;;;;;17.20;100.00;101219.16;4968390;28;19956;-87
2023/09/10 00:51:11;;;;;;;;;;;;;;;17.19;100.00;101230.16;4960528;28;20356;-85
2023/09/10 00:53:36;;;;;;;;;;;;;;;17.20;100.00;101231.81;4959312;28;19915;-86
2023/09/10 00:56:02;;;;;;;;;;;;;;;17.19;100.00;101235.56;4950415;28;19987;-86
2023/09/10 00:58:27;;;;;;;;;;;;;;;17.12;100.00;101227.41;4964443;28;19925;-85
2023/09/10 01:00:53;;;;;;;;;;;;;;;17.19;100.00;101232.88;4946928;28;19918;-84
2023/09/10 01:03:19;;;;;;;;;;;;;;;17.18;100.00;101237.41;4969607;28;19918;-85
2023/09/10 01:05:44;;;;;;;;;;;;;;;17.15;100.00;101234.28;4958870;28;19981;-86
2023/09/10 01:08:10;;;;;;;;;;;;;;;17.20;100.00;101231.81;4978904;28;19957;-87
2023/09/10 01:10:41;;;;;;;;;;;;;;;17.22;100.00;101248.66;4974958;28;19910;-85
2023/09/10 01:13:19;;;;;;;;;;;;;;;17.18;100.00;101234.69;4965634;28;19913;-85
2023/09/10 01:15:50;;;;;;;;;;;;;;;17.23;100.00;101234.13;4972539;28;19914;-87
2023/09/10 01:18:23;;;;;;;;;;;;;;;17.17;100.00;101229.53;4977851;28;19961;-86
2023/09/10 01:21:02;;;;;;;;;;;;;;;17.14;100.00;101219.94;4960392;28;20034;-83
2023/09/10 01:23:46;;;;;;;;;;;;;;;17.15;100.00;101218.91;4970660;28;19922;-86
2023/09/10 01:26:11;;;;;;;;;;;;;;;17.06;100.00;101217.38;4980710;28;20450;-86
2023/09/10 01:28:37;;;;;;;;;;;;;;;17.01;100.00;101200.94;4975823;28;19914;-86
2023/09/10 01:31:02;;;;;;;;;;;;;;;17.06;100.00;101198.50;4974843;28;19914;-87
2023/09/10 01:33:35;;;;;;;;;;;;;;;17.01;100.00;101207.16;4977558;28;19929;-85
2023/09/10 01:36:01;;;;;;;;;;;;;;;17.05;100.00;101196.84;4974735;28;19921;-86
2023/09/10 01:38:28;;;;;;;;;;;;;;;17.02;100.00;101200.75;4953592;28;19914;-86
2023/09/10 01:41:02;;;;;;;;;;;;;;;16.94;100.00;101208.97;4962448;28;19914;-86
2023/09/10 01:43:28;;;;;;;;;;;;;;;16.92;100.00;101202.09;4979966;28;19926;-85
2023/09/10 01:45:53;;;;;;;;;;;;;;;16.90;100.00;101201.47;4956945;28;19910;-85
2023/09/10 01:48:19;;;;;;;;;;;;;;;16.90;100.00;101196.06;4965322;28;19933;-85
2023/09/10 01:50:44;;;;;;;;;;;;;;;16.95;100.00;101215.19;4975237;28;20060;-84
2023/09/10 01:53:10;;;;;;;;;;;;;;;16.90;100.00;101206.84;4960156;28;19914;-86
2023/09/10 01:55:35;;;;;;;;;;;;;;;16.88;100.00;101218.69;4962721;28;20320;-85
2023/09/10 01:58:00;;;;;;;;;;;;;;;16.93;100.00;101228.03;4968270;28;19920;-87
2023/09/10 02:00:26;;;;;;;;;;;;;;;16.88;100.00;101223.25;4965240;28;19914;-86
2023/09/10 02:02:51;;;;;;;;;;;;;;;16.85;100.00;101220.91;4970270;28;19928;-84
2023/09/10 02:05:16;;;;;;;;;;;;;;;16.86;100.00;101228.00;4975144;28;19981;-87
2023/09/10 02:07:41;;;;;;;;;;;;;;;16.76;100.00;101209.38;4972813;28;19964;-87
2023/09/10 02:10:07;;;;;;;;;;;;;;;16.73;100.00;101212.47;4966691;28;19973;-86
2023/09/10 02:12:36;;;;;;;;;;;;;;;16.69;100.00;101208.47;4975074;28;19957;-84
2023/09/10 02:15:03;;;;;;;;;;;;;;;16.68;100.00;101199.56;4967095;28;19917;-86
2023/09/10 02:17:29;;;;;;;;;;;;;;;16.61;100.00;101197.81;4957425;28;19918;-86
2023/09/10 02:19:54;;;;;;;;;;;;;;;16.59;100.00;101191.78;4977232;28;19910;-87
2023/09/10 02:22:19;;;;;;;;;;;;;;;16.59;100.00;101197.19;4975355;28;19953;-87
2023/09/10 02:24:50;;;;;;;;;;;;;;;16.66;100.00;101207.00;4974516;28;19910;-86
2023/09/10 02:27:15;;;;;;;;;;;;;;;16.65;100.00;101208.03;4960481;28;20436;-86
2023/09/10 02:29:40;;;;;;;;;;;;;;;16.55;100.00;101203.97;4973153;28;19914;-87
2023/09/10 02:32:05;;;;;;;;;;;;;;;16.49;100.00;101199.34;4975491;28;19914;-86
2023/09/10 02:34:31;;;;;;;;;;;;;;;16.45;100.00;101194.31;4964437;28;20012;-87
2023/09/10 02:36:56;;;;;;;;;;;;;;;16.51;100.00;101202.69;4972188;28;19911;-87
2023/09/10 02:39:21;;;;;;;;;;;;;;;16.48;100.00;101205.75;4965331;28;19914;-87
2023/09/10 02:41:49;;;;;;;;;;;;;;;16.38;100.00;101204.19;4966046;28;20001;-86
2023/09/10 02:44:15;;;;;;;;;;;;;;;16.34;100.00;101194.84;4967842;28;19964;-86
2023/09/10 02:46:40;;;;;;;;;;;;;;;16.29;100.00;101194.56;4975005;28;19910;-87
2023/09/10 02:49:06;;;;;;;;;;;;;;;16.28;100.00;101187.50;4975105;28;20003;-86
2023/09/10 02:51:31;;;;;;;;;;;;;;;16.29;100.00;101197.25;4957665;28;19914;-86
2023/09/10 02:53:56;;;;;;;;;;;;;;;16.34;100.00;101194.00;4972724;28;19914;-87
2023/09/10 02:56:21;;;;;;;;;;;;;;;16.35;100.00;101209.16;4958618;28;20634;-87
2023/09/10 02:58:47;;;;;;;;;;;;;;;16.31;100.00;101205.97;4976359;28;19925;-87
2023/09/10 03:01:12;;;;;;;;;;;;;;;16.33;100.00;101219.28;4968016;28;19913;-86
2023/09/10 03:03:37;;;;;;;;;;;;;;;16.25;100.00;101209.44;4974600;28;19926;-85
2023/09/10 03:06:09;;;;;;;;;;;;;;;16.28;100.00;101219.84;4990345;28;19914;-85
2023/09/10 03:08:35;;;;;;;;;;;;;;;16.20;100.00;101219.94;4977185;28;19950;-83
2023/09/10 03:11:02;;;;;;;;;;;;;;;16.11;100.00;101210.28;4954635;28;20067;-86
2023/09/10 03:13:27;;;;;;;;;;;;;;;16.08;100.00;101214.19;4968598;28;19933;-85
2023/09/10 03:15:53;;;;;;;;;;;;;;;16.08;100.00;101208.81;4959381;28;19911;-85
2023/09/10 03:18:18;;;;;;;;;;;;;;;16.09;100.00;101204.28;4971259;28;19992;-85
2023/09/10 03:20:43;;;;;;;;;;;;;;;16.06;100.00;101200.09;4956309;28;19978;-85
2023/09/10 03:23:09;;;;;;;;;;;;;;;16.04;100.00;101199.44;4984311;28;19918;-86
2023/09/10 03:25:35;;;;;;;;;;;;;;;16.07;100.00;101203.63;4963783;28;20360;-86
2023/09/10 03:28:00;;;;;;;;;;;;;;;16.09;100.00;101207.78;4963044;28;19914;-85
2023/09/10 03:30:26;;;;;;;;;;;;;;;16.21;100.00;101225.13;4971740;28;20005;-85
2023/09/10 03:32:51;;;;;;;;;;;;;;;16.18;100.00;101228.22;4971345;28;19917;-85
2023/09/10 03:35:16;;;;;;;;;;;;;;;16.09;100.00;101221.25;4957675;28;20387;-86
2023/09/10 03:37:42;;;;;;;;;;;;;;;16.06;100.00;101220.78;4966941;28;19918;-86
2023/09/10 03:40:08;;;;;;;;;;;;;;;16.06;100.00;101223.47;4963502;28;19925;-87
2023/09/10 03:42:34;;;;;;;;;;;;;;;16.04;100.00;101227.22;4962890;28;20016;-86
2023/09/10 03:44:59;;;;;;;;;;;;;;;15.99;100.00;101223.38;4961567;28;19958;-86
2023/09/10 03:47:28;;;;;;;;;;;;;;;15.93;100.00;101232.22;4968258;28;19921;-86
2023/09/10 03:49:53;;;;;;;;;;;;;;;15.93;100.00;101227.69;4968209;28;19910;-85
2023/09/10 03:52:20;;;;;;;;;;;;;;;15.86;100.00;101232.13;4956046;28;20708;-85
2023/09/10 03:54:45;;;;;;;;;;;;;;;16.07;100.00;101252.09;4964700;28;19915;-87
2023/09/10 03:57:10;;;;;;;;;;;;;;;16.32;100.00;101269.63;4957153;28;19914;-86
2023/09/10 03:59:36;;;;;;;;;;;;;;;16.54;100.00;101280.47;4977238;28;19909;-86
2023/09/10 04:02:01;;;;;;;;;;;;;;;16.70;100.00;101279.44;4954760;28;19922;-85
2023/09/10 04:04:26;;;;;;;;;;;;;;;16.74;100.00;101273.47;4963318;28;20014;-86
2023/09/10 04:06:52;;;;;;;;;;;;;;;16.76;100.00;101282.16;4972503;28;19918;-86
2023/09/10 04:09:17;;;;;;;;;;;;;;;16.74;100.00;101278.84;4952013;28;19914;-85
2023/09/10 04:11:42;;;;;;;;;;;;;;;16.63;100.00;101279.34;4955722;28;19921;-84
2023/09/10 04:14:07;;;;;;;;;;;;;;;16.59;100.00;101275.34;4968154;28;19918;-83
2023/09/10 04:16:33;;;;;;;;;;;;;;;16.57;100.00;101282.78;4965694;28;19918;-83
2023/09/10 04:18:58;;;;;;;;;;;;;;;16.41;100.00;101273.91;4959273;28;19917;-84
2023/09/10 04:21:23;;;;;;;;;;;;;;;16.40;100.00;101272.22;4957709;28;20291;-85
2023/09/10 04:23:48;;;;;;;;;;;;;;;16.41;100.00;101270.34;4956674;28;19914;-85
2023/09/10 04:26:14;;;;;;;;;;;;;;;16.39;100.00;101270.56;4960105;28;19922;-86
2023/09/10 04:28:40;;;;;;;;;;;;;;;16.37;100.00;101269.09;4966118;28;19910;-85
2023/09/10 04:31:08;;;;;;;;;;;;;;;16.44;100.00;101260.03;4963341;28;20392;-85
2023/09/10 04:33:33;;;;;;;;;;;;;;;16.43;100.00;101260.22;4971088;28;19922;-84
2023/09/10 04:36:01;;;;;;;;;;;;;;;16.49;100.00;101264.88;4981469;22;19973;-73
2023/09/10 04:38:26;;;;;;;;;;;;;;;16.50;100.00;101273.78;4980716;28;19921;-73
2023/09/10 04:40:51;;;;;;;;;;;;;;;16.46;100.00;101260.69;4984246;28;20538;-73
2023/09/10 04:43:16;;;;;;;;;;;;;;;16.55;100.00;101264.13;4984257;28;19925;-73
2023/09/10 04:45:42;;;;;;;;;;;;;;;16.51;100.00;101262.00;4984689;28;20719;-73
2023/09/10 04:48:08;;;;;;;;;;;;;;;16.52;100.00;101260.97;4970343;28;19996;-73
2023/09/10 04:50:33;;;;;;;;;;;;;;;16.65;100.00;101261.94;4978778;28;19968;-73
2023/09/10 04:53:00;;;;;;;;;;;;;;;16.57;100.00;101262.06;4984027;28;19917;-73
2023/09/10 04:55:25;;;;;;;;;;;;;;;16.59;100.00;101262.69;4984308;28;19921;-73
2023/09/10 04:57:50;;;;;;;;;;;;;;;16.61;100.00;101263.34;4978259;28;19914;-73
2023/09/10 05:00:17;;;;;;;;;;;;;;;16.56;100.00;101251.47;4984001;28;20012;-73
2023/09/10 05:02:42;;;;;;;;;;;;;;;16.59;100.00;101261.88;4981440;28;19924;-73
2023/09/10 05:05:08;;;;;;;;;;;;;;;16.61;100.00;101262.53;5001831;28;19957;-73
2023/09/10 05:07:33;;;;;;;;;;;;;;;16.57;100.00;101261.22;4986832;28;19953;-72
2023/09/10 05:09:58;;;;;;;;;;;;;;;16.65;100.00;101263.81;5001570;28;19913;-74
2023/09/10 05:12:23;;;;;;;;;;;;;;;16.70;100.00;101274.88;4987755;28;20012;-73
2023/09/10 05:14:49;;;;;;;;;;;;;;;16.62;100.00;101273.13;4988005;28;19914;-73
2023/09/10 05:17:14;;;;;;;;;;;;;;;16.55;100.00;101271.34;5008861;28;20279;-73
2023/09/10 05:19:39;;;;;;;;;;;;;;;16.54;100.00;101272.38;5014856;28;19913;-73
2023/09/10 05:22:05;;;;;;;;;;;;;;;16.52;100.00;101280.66;5013198;28;20331;-73
2023/09/10 05:24:30;;;;;;;;;;;;;;;16.54;100.00;101283.16;4987502;28;19914;-73
2023/09/10 05:26:55;;;;;;;;;;;;;;;16.50;100.00;101287.25;4986902;28;19916;-73
2023/09/10 05:29:21;;;;;;;;;;;;;;;16.54;100.00;101288.56;4987259;28;20373;-74
2023/09/10 05:31:46;;;;;;;;;;;;;;;16.53;100.00;101286.88;4987314;28;19960;-73
2023/09/10 05:34:11;;;;;;;;;;;;;;;16.59;100.00;101294.22;4984284;28;20592;-74
2023/09/10 05:36:36;;;;;;;;;;;;;;;16.57;100.00;101288.19;5011173;28;19914;-74
2023/09/10 05:39:02;;;;;;;;;;;;;;;16.62;100.00;101296.53;4983728;28;19914;-73
2023/09/10 05:41:28;;;;;;;;;;;;;;;16.66;100.00;101297.81;4986408;28;19921;-73
2023/09/10 05:46:22;;;;;;;;;;;;;;;16.71;100.00;101310.75;4960393;28;19929;-77
2023/09/10 05:48:47;;;;;;;;;;;;;;;16.71;100.00;101305.34;4991435;28;19976;-77
2023/09/10 05:51:13;;;;;;;;;;;;;;;16.83;100.00;101309.25;4993611;28;19914;-77
2023/09/10 05:53:40;;;;;;;;;;;;;;;16.89;100.00;101311.19;4993052;28;19914;-77
2023/09/10 05:56:05;;;;;;;;;;;;;;;16.85;100.00;101308.03;4994614;28;19911;-77
2023/09/10 05:58:32;;;;;;;;;;;;;;;16.83;100.00;101303.84;4950722;28;19913;-77
2023/09/10 06:00:57;;;;;;;;;;;;;;;16.92;100.00;101302.72;4992374;28;20301;-77
2023/09/10 06:03:22;;;;;;;;;;;;;;;16.77;100.00;101300.03;4957082;28;19988;-77
2023/09/10 06:05:48;;;;;;;;;;;;;;;16.82;100.00;101296.81;4991223;28;19914;-77
2023/09/10 06:08:14;;;;;;;;;;;;;;;16.98;100.00;101295.75;5001059;28;20372;-77
2023/09/10 06:10:39;;;;;;;;;;;;;;;17.08;100.00;101296.25;5000262;28;20012;-77
2023/09/10 06:13:04;;;;;;;;;;;;;;;17.13;100.00;101295.66;5001584;28;19917;-76
2023/09/10 06:15:30;;;;;;;;;;;;;;;17.16;100.00;101290.75;5002887;28;19920;-76
2023/09/10 06:17:55;;;;;;;;;;;;;;;17.12;100.00;101292.16;4970181;28;19916;-77
2023/09/10 06:20:20;;;;;;;;;;;;;;;17.08;100.00;101271.97;5003599;28;20448;-75
2023/09/10 06:22:45;;;;;;;;;;;;;;;17.18;100.00;101282.44;4980076;28;19914;-77
2023/09/10 06:25:11;;;;;;;;;;;;;;;17.28;100.00;101286.50;4985650;28;20292;-77
2023/09/10 06:27:36;;;;;;;;;;;;;;;17.34;100.00;101284.03;4983382;28;19914;-77
2023/09/10 06:30:02;;;;;;;;;;;;;;;17.40;100.00;101289.50;4971708;28;19914;-76
2023/09/10 06:32:27;;;;;;;;;;;;;;;17.44;100.00;101289.94;4974107;28;20739;-77
2023/09/10 06:34:52;;;;;;;;;;;;;;;17.07;100.00;101281.94;4983441;28;20562;-77
2023/09/10 06:37:18;;;;;;;;;;;;;;;17.02;100.00;101280.81;4950651;28;19921;-76
2023/09/10 06:39:44;;;;;;;;;;;;;;;17.06;100.00;101282.94;4998255;28;20004;-76
2023/09/10 06:42:11;;;;;;;;;;;;;;;17.15;100.00;101291.75;4985347;28;20353;-77
2023/09/10 06:44:43;;;;;;;;;;;;;;;17.12;100.00;101294.84;4978416;28;19914;-76
2023/09/10 06:47:09;;;;;;;;;;;;;;;17.27;100.00;101287.50;4960457;28;19914;-77
2023/09/10 06:49:34;;;;;;;;;;;;;;;17.18;100.00;101291.34;4972742;28;20272;-77
2023/09/10 06:52:00;;;;;;;;;;;;;;;17.16;100.00;101288.03;4971331;28;19961;-77
2023/09/10 06:54:25;;;;;;;;;;;;;;;17.37;100.00;101295.28;4975481;28;19917;-77
2023/09/10 06:56:50;;;;;;;;;;;;;;;17.41;100.00;101301.13;4967663;28;19992;-78
2023/09/10 06:59:16;;;;;;;;;;;;;;;17.61;100.00;101307.53;4985484;28;19920;-78
2023/09/10 07:01:41;;;;;;;;;;;;;;;17.77;100.00;101306.41;4973174;28;20408;-77
2023/09/10 07:04:17;;;;;;;;;;;;;;;17.80;100.00;101295.22;4983683;28;19922;-76
2023/09/10 07:06:42;;;;;;;;;;;;;;;17.83;100.00;101302.13;4975417;28;19978;-77
2023/09/10 07:09:08;;;;;;;;;;;;;;;17.80;100.00;101292.50;5000474;28;20284;-77
2023/09/10 07:11:33;;;;;;;;;;;;;;;17.80;100.00;101289.81;4986071;28;20273;-77
2023/09/10 07:13:58;;;;;;;;;;;;;;;17.96;100.00;101299.53;4978478;28;19917;-77
2023/09/10 07:16:26;;;;;;;;;;;;;;;18.07;100.00;101300.81;4994567;28;20372;-76
2023/09/10 07:18:52;;;;;;;;;;;;;;;18.04;100.00;101293.13;4993701;28;20598;-77
2023/09/10 07:21:17;;;;;;;;;;;;;;;17.99;100.00;101287.47;4985472;28;19972;-77
2023/09/10 07:23:45;;;;;;;;;;;;;;;18.24;100.00;101296.78;4985346;28;19928;-77
2023/09/10 07:26:10;;;;;;;;;;;;;;;18.35;100.00;101293.50;4975152;28;20011;-77
2023/09/10 07:28:35;;;;;;;;;;;;;;;17.92;100.00;101276.63;4973898;28;20404;-76
2023/09/10 07:31:02;;;;;;;;;;;;;;;18.07;100.00;101295.41;4982984;28;19910;-77
2023/09/10 07:33:27;;;;;;;;;;;;;;;18.05;100.00;101302.88;4980573;28;20826;-78
2023/09/10 07:35:52;;;;;;;;;;;;;;;18.11;100.00;101294.00;4990878;28;19921;-77
2023/09/10 07:38:18;;;;;;;;;;;;;;;18.05;100.00;101295.63;4974601;28;19925;-77
2023/09/10 07:40:43;;;;;;;;;;;;;;;18.25;100.00;101306.53;4972783;28;19909;-77
2023/09/10 07:43:08;;;;;;;;;;;;;;;18.21;100.00;101307.13;4986488;28;19917;-76
2023/09/10 07:45:33;;;;;;;;;;;;;;;18.40;100.00;101301.00;4978616;28;20004;-76
2023/09/10 07:47:59;;;;;;;;;;;;;;;18.43;100.00;101289.81;4993050;28;19914;-77
2023/09/10 07:50:27;;;;;;;;;;;;;;;18.51;100.00;101283.38;4983269;28;20391;-77
2023/09/10 07:52:53;;;;;;;;;;;;;;;18.53;100.00;101284.84;4972067;28;19953;-78
2023/09/10 07:55:18;;;;;;;;;;;;;;;18.53;100.00;101274.03;4982940;28;20291;-77
2023/09/10 07:57:43;;;;;;;;;;;;;;;18.43;100.00;101268.16;4960576;28;19989;-76
2023/09/10 08:00:09;;;;;;;;;;;;;;;18.39;100.00;101303.91;4999914;28;19917;-77
2023/09/10 08:02:37;;;;;;;;;;;;;;;18.35;100.00;101309.72;4969051;28;19990;-77
2023/09/10 08:05:03;;;;;;;;;;;;;;;18.38;100.00;101299.53;4985062;28;19930;-77
2023/09/10 08:07:29;;;;;;;;;;;;;;;18.49;100.00;101310.59;4973323;28;19921;-76
2023/09/10 08:09:54;;;;;;;;;;;;;;;18.49;100.00;101305.19;4998183;28;19917;-77
2023/09/10 08:12:19;;;;;;;;;;;;;;;18.08;100.00;101287.13;4978516;28;19921;-76
2023/09/10 08:14:45;;;;;;;;;;;;;;;18.44;100.00;101302.25;4981785;28;20377;-77
2023/09/10 08:17:10;;;;;;;;;;;;;;;18.58;100.00;101286.09;4974185;28;19914;-76
2023/09/10 08:19:35;;;;;;;;;;;;;;;18.62;100.00;101279.28;4986989;28;19910;-76
2023/09/10 08:22:00;;;;;;;;;;;;;;;18.56;100.00;101268.19;4976714;28;20404;-77
2023/09/10 08:24:26;;;;;;;;;;;;;;;18.68;100.00;101270.31;4989236;28;19910;-76
2023/09/10 08:26:51;;;;;;;;;;;;;;;18.78;100.00;101289.75;4966571;28;19924;-76
2023/09/10 08:29:16;;;;;;;;;;;;;;;18.81;100.00;101259.59;4966265;28;20326;-76
2023/09/10 08:31:42;;;;;;;;;;;;;;;18.56;100.00;101235.75;4973151;28;19920;-77
2023/09/10 08:34:07;;;;;;;;;;;;;;;18.82;100.00;101261.25;4967475;28;19929;-76
2023/09/10 08:36:32;;;;;;;;;;;;;;;19.09;100.00;101245.06;4978200;28;20357;-78
2023/09/10 08:38:58;;;;;;;;;;;;;;;19.11;100.00;101233.00;4985727;28;19913;-76
2023/09/10 08:41:39;;;;;;;;;;;;;;;18.63;100.00;101187.09;4995132;28;20369;-77
2023/09/10 08:44:06;;;;;;;;;;;;;;;19.23;100.00;101230.50;5010497;22;19926;-76
2023/09/10 08:46:32;;;;;;;;;;;;;;;19.40;100.00;101149.69;4975837;28;20004;-76
2023/09/10 08:48:58;;;;;;;;;;;;;;;19.32;100.00;101164.28;4984901;28;20854;-75
2023/09/10 08:51:24;;;;;;;;;;;;;;;19.31;100.00;101086.81;4985799;28;20369;-76
2023/09/10 08:53:51;;;;;;;;;;;;;;;19.48;100.00;101070.94;4977374;28;19964;-76
2023/09/10 08:56:17;;;;;;;;;;;;;;;20.10;100.00;101067.78;4986881;28;19913;-76
2023/09/10 08:58:43;;;;;;;;;;;;;;;20.13;100.00;101003.09;4981075;28;20384;-76
2023/09/10 09:01:09;;;;;;;;;;;;;;;19.71;100.00;100986.47;4981898;28;19914;-76
2023/09/10 09:03:34;;;;;;;;;;;;;;;19.84;100.00;101030.81;4982273;28;19925;-77
2023/09/10 09:06:03;;;;;;;;;;;;;;;19.60;100.00;101025.06;4971632;28;19946;-76
2023/09/10 09:08:40;;;;;;;;;;;;;;;19.75;100.00;101079.81;4979008;28;19968;-76
2023/09/10 09:11:08;;;;;;;;;;;;;;;19.64;100.00;101053.38;4979588;28;20008;-77
2023/09/10 09:13:35;;;;;;;;;;;;;;;19.80;100.00;101052.91;4979980;28;19917;-76
2023/09/10 09:16:02;;;;;;;;;;;;;;;19.86;100.00;101104.59;4959268;28;19972;-76
2023/09/10 09:18:28;;;;;;;;;;;;;;;19.99;100.00;101043.03;4982851;28;20880;-77
2023/09/10 09:20:56;;;;;;;;;;;;;;;20.08;100.00;101013.78;4975730;28;19984;-77
2023/09/10 09:23:31;;;;;;;;;;;;;;;20.17;100.00;100958.25;4968055;28;19922;-76
2023/09/10 09:25:56;;;;;;;;;;;;;;;20.75;100.00;100962.56;4972243;28;19926;-76
2023/09/10 09:28:22;;;;;;;;;;;;;;;21.12;100.00;100893.84;4970247;28;20982;-75
2023/09/10 09:30:48;;;;;;;;;;;;;;;21.41;100.00;100835.22;4985555;28;19925;-76
2023/09/10 09:33:13;;;;;;;;;;;;;;;21.47;100.00;100747.41;4967142;28;19914;-76
2023/09/10 09:35:38;;;;;;;;;;;;;;;21.86;100.00;100691.50;4991199;28;19973;-76
2023/09/10 09:38:11;;;;;;;;;;;;;;;21.77;100.00;100605.16;4985546;28;20009;-76
2023/09/10 09:40:36;;;;;;;;;;;;;;;21.82;100.00;100690.34;4991113;28;19914;-76
2023/09/10 09:43:05;;;;;;;;;;;;;;;21.40;100.00;100602.72;4995542;28;19920;-77
2023/09/10 09:45:31;;;;;;;;;;;;;;;22.12;100.00;100740.97;4982382;28;19913;-76
2023/09/10 09:47:56;;;;;;;;;;;;;;;22.65;100.00;100650.13;4973287;28;20473;-76
2023/09/10 09:50:21;;;;;;;;;;;;;;;21.90;100.00;100452.69;4998460;28;19959;-77
2023/09/10 09:52:50;;;;;;;;;;;;;;;22.58;100.00;100450.84;4968820;28;19910;-77
2023/09/10 09:55:16;;;;;;;;;;;;;;;22.67;100.00;100544.59;4980673;28;19945;-77
2023/09/10 09:57:41;;;;;;;;;;;;;;;22.24;100.00;100535.16;4973968;28;20000;-77
2023/09/10 10:00:07;;;;;;;;;;;;;;;22.62;100.00;100696.88;4970989;28;19913;-76
2023/09/10 10:02:32;;;;;;;;;;;;;;;23.80;100.00;100410.72;4980930;28;19918;-75
2023/09/10 10:04:59;;;;;;;;;;;;;;;24.06;100.00;100385.56;4983820;28;19920;-76
2023/09/10 10:07:28;;;;;;;;;;;;;;;23.31;100.00;100211.09;4979949;28;19909;-77
2023/09/10 10:09:53;;;;;;;;;;;;;;;23.62;100.00;100408.31;4987725;28;19925;-77
2023/09/10 10:12:19;;;;;;;;;;;;;;;24.24;100.00;100202.44;4986136;28;19910;-77
2023/09/10 10:14:45;;;;;;;;;;;;;;;24.57;100.00;100121.25;4979122;28;19972;-77
2023/09/10 10:17:11;;;;;;;;;;;;;;;24.81;100.00;100165.22;5006839;28;19913;-77
2023/09/10 10:19:37;;;;;;;;;;;;;;;25.65;100.00;99915.09;4977322;28;19914;-77
2023/09/10 10:22:04;;;;;;;;;;;;;;;25.20;100.00;99929.84;4980256;28;20009;-77
2023/09/10 10:24:30;;;;;;;;;;;;;;;24.60;100.00;99927.78;4974954;28;19981;-76
2023/09/10 10:26:56;;;;;;;;;;;;;;;24.84;100.00;100102.72;4971207;28;20178;-77
2023/09/10 10:29:22;;;;;;;;;;;;;;;25.31;100.00;99826.78;4990531;28;19913;-77
2023/09/10 10:31:51;;;;;;;;;;;;;;;25.86;100.00;99988.81;4970319;28;19914;-75
2023/09/10 10:34:21;;;;;;;;;;;;;;;25.95;100.00;100085.59;4971291;28;19918;-77
2023/09/10 10:37:05;;;;;;;;;;;;;;;26.50;96.87;99894.78;4967276;28;19929;-77
2023/09/10 10:39:38;;;;;;;;;;;;;;;26.35;98.39;100020.78;4969757;28;19925;-76
2023/09/10 10:42:05;;;;;;;;;;;;;;;26.89;96.41;99981.44;4968207;28;19917;-76
2023/09/10 10:44:33;;;;;;;;;;;;;;;27.44;93.13;99936.47;4977082;28;20400;-78
2023/09/10 10:46:59;;;;;;;;;;;;;;;27.56;89.09;99670.97;4967316;28;19969;-77
2023/09/10 10:49:25;;;;;;;;;;;;;;;25.82;92.78;99706.94;4972310;28;20536;-76
2023/09/10 10:51:51;;;;;;;;;;;;;;;27.09;90.29;99812.50;4979560;28;19913;-77
2023/09/10 10:54:17;;;;;;;;;;;;;;;27.47;85.76;99563.13;4979303;28;19910;-76
2023/09/10 10:56:42;;;;;;;;;;;;;;;27.39;85.70;99589.28;4987372;28;19925;-78
2023/09/10 10:59:08;;;;;;;;;;;;;;;27.56;84.32;99544.88;4985322;28;20392;-77
2023/09/10 11:01:33;;;;;;;;;;;;;;;25.24;86.95;99278.16;4967559;28;19972;-76
2023/09/10 11:04:16;;;;;;;;;;;;;;;26.88;87.23;99762.69;4982499;28;19914;-77
2023/09/10 11:07:01;;;;;;;;;;;;;;;25.82;87.28;99488.25;4966842;28;19980;-78
2023/09/10 11:09:36;;;;;;;;;;;;;;;27.15;87.44;99855.16;4987320;28;19917;-76
2023/09/10 11:12:05;;;;;;;;;;;;;;;27.43;84.43;99655.28;4979950;28;19965;-77
2023/09/10 11:14:51;;;;;;;;;;;;;;;27.73;85.17;99826.66;4991675;28;19918;-76
2023/09/10 11:17:22;;;;;;;;;;;;;;;28.03;82.29;99646.25;4984797;28;19925;-75
2023/09/10 11:19:48;;;;;;;;;;;;;;;27.30;81.00;99359.03;4973564;28;19913;-77
2023/09/10 11:22:13;;;;;;;;;;;;;;;27.64;81.61;99579.78;4985859;28;20020;-77
2023/09/10 11:24:40;;;;;;;;;;;;;;;27.58;82.15;99639.38;4979243;28;19914;-76
2023/09/10 11:27:19;;;;;;;;;;;;;;;27.06;79.40;99218.75;4968964;28;19909;-76
2023/09/10 11:29:45;;;;;;;;;;;;;;;27.99;81.94;99778.50;4974649;28;20576;-77
2023/09/10 11:32:17;;;;;;;;;;;;;;;28.59;80.55;99735.66;4968653;28;19921;-76
2023/09/10 11:34:42;;;;;;;;;;;;;;;28.48;77.66;99459.75;4967605;28;19964;-76
2023/09/10 11:37:09;;;;;;;;;;;;;;;28.11;78.29;99465.25;4974475;28;20392;-75
2023/09/10 11:39:35;;;;;;;;;;;;;;;27.83;79.84;99581.59;4974939;28;19953;-77
2023/09/10 11:42:02;;;;;;;;;;;;;;;28.37;78.82;99643.03;4976098;23;20434;-87
2023/09/10 11:44:28;;;;;;;;;;;;;;;28.99;78.34;99755.13;4988976;28;20307;-88
2023/09/10 11:46:54;;;;;;;;;;;;;;;28.03;78.40;99503.59;4966067;28;20306;-87
2023/09/10 11:49:20;;;;;;;;;;;;;;;28.48;79.65;99773.50;4954081;28;20008;-88
2023/09/10 11:51:52;;;;;;;;;;;;;;;28.42;76.92;99511.16;4969948;28;20009;-88
2023/09/10 11:54:18;;;;;;;;;;;;;;;26.59;81.28;99467.19;4970671;28;19914;-88
2023/09/10 11:56:47;;;;;;;;;;;;;;;27.03;83.73;99866.53;4951980;28;19981;-88
2023/09/10 11:59:13;;;;;;;;;;;;;;;28.34;81.56;99926.34;4969221;28;19968;-88
2023/09/10 12:01:38;;;;;;;;;;;;;;;28.43;80.58;99831.22;4966898;28;20343;-87
2023/09/10 12:04:03;;;;;;;;;;;;;;;28.15;80.08;99712.38;4969308;28;19929;-87
2023/09/10 12:06:29;;;;;;;;;;;;;;;28.42;81.33;99918.25;4956981;28;19914;-88
2023/09/10 12:08:54;;;;;;;;;;;;;;;28.24;76.59;99446.28;4952198;28;20331;-87
2023/09/10 12:11:20;;;;;;;;;;;;;;;28.29;78.04;99605.34;4954518;28;19949;-88
2023/09/10 12:13:46;;;;;;;;;;;;;;;28.11;78.29;99599.69;4963202;28;19913;-88
2023/09/10 12:16:12;;;;;;;;;;;;;;;27.89;80.04;99736.75;4972813;28;20300;-87
2023/09/10 12:18:38;;;;;;;;;;;;;;;27.96;81.79;99857.84;4973178;28;19914;-87
2023/09/10 12:21:05;;;;;;;;;;;;;;;28.46;79.49;99819.66;4964299;28;19921;-88
2023/09/10 12:23:30;;;;;;;;;;;;;;;27.08;80.18;99524.06;4977111;28;19918;-87
2023/09/10 12:25:56;;;;;;;;;;;;;;;28.41;82.55;100103.28;4972628;28;19910;-88
2023/09/10 12:28:21;;;;;;;;;;;;;;;28.56;78.90;99748.06;4996925;28;20028;-87